sensor_id;sensor_type;location;lat;lon;timestamp;pressure;altitude;pressure_sealevel;temperature;humidity
12209;BME280;6167;43.080;25.634;2022-07-29T00:00:12;99557.81;;;22.62;100.00
12209;BME280;6167;43.080;25.634;2022-07-29T00:02:39;99562.03;;;22.84;100.00
12209;BME280;6167;43.080;25.634;2022-07-29T00:05:08;99565.59;;;23.12;100.00
12209;BME280;6167;43.080;25.634;2022-07-29T00:07:35;99567.84;;;23.16;100.00
12209;BME280;6167;43.080;25.634;2022-07-29T00:10:03;99583.81;;;23.00;100.00
12209;BME280;6167;43.080;25.634;2022-07-29T00:12:30;99565.22;;;23.07;100.00
12209;BME280;6167;43.080;25.634;2022-07-29T00:14:57;99570.19;;;23.29;100.00
12209;BME280;6167;43.080;25.634;2022-07-29T00:17:26;99574.53;;;23.12;100.00
12209;BME280;6167;43.080;25.634;2022-07-29T00:19:53;99574.22;;;23.15;100.00
12209;BME280;6167;43.080;25.634;2022-07-29T00:22:20;99586.00;;;23.14;100.00
12209;BME280;6167;43.080;25.634;2022-07-29T00:24:48;99579.69;;;23.06;100.00
12209;BME280;6167;43.080;25.634;2022-07-29T00:27:15;99569.81;;;22.68;100.00
12209;BME280;6167;43.080;25.634;2022-07-29T00:29:42;99582.97;;;22.90;100.00
12209;BME280;6167;43.080;25.634;2022-07-29T00:32:09;99586.16;;;22.56;100.00
12209;BME280;6167;43.080;25.634;2022-07-29T00:34:40;99589.28;;;22.52;100.00
12209;BME280;6167;43.080;25.634;2022-07-29T00:37:24;99578.94;;;22.57;100.00
12209;BME280;6167;43.080;25.634;2022-07-29T00:39:51;99585.56;;;22.82;100.00
12209;BME280;6167;43.080;25.634;2022-07-29T00:42:18;99554.16;;;22.34;100.00
12209;BME280;6167;43.080;25.634;2022-07-29T00:44:45;99584.94;;;22.22;100.00
12209;BME280;6167;43.080;25.634;2022-07-29T00:47:13;99584.03;;;22.50;100.00
12209;BME280;6167;43.080;25.634;2022-07-29T00:49:41;99573.09;;;22.81;100.00
12209;BME280;6167;43.080;25.634;2022-07-29T00:52:11;99566.72;;;22.62;100.00
12209;BME280;6167;43.080;25.634;2022-07-29T00:54:39;99567.31;;;22.47;100.00
12209;BME280;6167;43.080;25.634;2022-07-29T00:57:07;99567.88;;;22.50;100.00
12209;BME280;6167;43.080;25.634;2022-07-29T00:59:34;99564.22;;;22.32;100.00
12209;BME280;6167;43.080;25.634;2022-07-29T01:02:01;99564.66;;;22.18;100.00
12209;BME280;6167;43.080;25.634;2022-07-29T01:04:28;99563.50;;;22.40;100.00
12209;BME280;6167;43.080;25.634;2022-07-29T01:06:58;99560.31;;;22.73;100.00
12209;BME280;6167;43.080;25.634;2022-07-29T01:09:27;99561.88;;;22.76;100.00
12209;BME280;6167;43.080;25.634;2022-07-29T01:11:55;99558.50;;;22.64;100.00
12209;BME280;6167;43.080;25.634;2022-07-29T01:14:22;99552.25;;;22.83;100.00
12209;BME280;6167;43.080;25.634;2022-07-29T01:16:51;99547.22;;;22.88;100.00
12209;BME280;6167;43.080;25.634;2022-07-29T01:19:35;99545.41;;;22.69;100.00
12209;BME280;6167;43.080;25.634;2022-07-29T01:22:18;99539.59;;;22.74;100.00
12209;BME280;6167;43.080;25.634;2022-07-29T01:25:19;99539.72;;;22.91;100.00
12209;BME280;6167;43.080;25.634;2022-07-29T01:28:07;99534.53;;;22.61;100.00
12209;BME280;6167;43.080;25.634;2022-07-29T01:30:42;99545.84;;;22.74;100.00
12209;BME280;6167;43.080;25.634;2022-07-29T01:33:13;99548.22;;;22.87;100.00
12209;BME280;6167;43.080;25.634;2022-07-29T01:36:14;99514.13;;;22.49;100.00
12209;BME280;6167;43.080;25.634;2022-07-29T01:38:45;99549.09;;;22.68;100.00
12209;BME280;6167;43.080;25.634;2022-07-29T01:41:19;99547.56;;;22.66;100.00
12209;BME280;6167;43.080;25.634;2022-07-29T01:43:51;99542.84;;;22.02;100.00
12209;BME280;6167;43.080;25.634;2022-07-29T01:46:27;99542.69;;;22.22;100.00
12209;BME280;6167;43.080;25.634;2022-07-29T01:48:59;99553.97;;;22.55;100.00
12209;BME280;6167;43.080;25.634;2022-07-29T01:51:32;99545.50;;;22.40;100.00
12209;BME280;6167;43.080;25.634;2022-07-29T01:54:04;99555.47;;;22.20;100.00
12209;BME280;6167;43.080;25.634;2022-07-29T01:56:35;99533.19;;;22.28;100.00
12209;BME280;6167;43.080;25.634;2022-07-29T01:59:04;99553.91;;;22.18;100.00
12209;BME280;6167;43.080;25.634;2022-07-29T02:01:36;99554.56;;;21.81;100.00
12209;BME280;6167;43.080;25.634;2022-07-29T02:04:06;99549.34;;;21.99;100.00
12209;BME280;6167;43.080;25.634;2022-07-29T02:06:37;99552.47;;;22.04;100.00
12209;BME280;6167;43.080;25.634;2022-07-29T02:09:06;99553.03;;;21.98;100.00
12209;BME280;6167;43.080;25.634;2022-07-29T02:11:35;99560.22;;;21.78;100.00
12209;BME280;6167;43.080;25.634;2022-07-29T02:14:04;99563.41;;;22.03;100.00
12209;BME280;6167;43.080;25.634;2022-07-29T02:16:34;99554.97;;;21.67;100.00
12209;BME280;6167;43.080;25.634;2022-07-29T02:19:03;99556.66;;;21.68;100.00
12209;BME280;6167;43.080;25.634;2022-07-29T02:21:32;99558.53;;;21.77;100.00
12209;BME280;6167;43.080;25.634;2022-07-29T02:24:01;99559.59;;;21.36;100.00
12209;BME280;6167;43.080;25.634;2022-07-29T02:26:30;99563.84;;;21.39;100.00
12209;BME280;6167;43.080;25.634;2022-07-29T02:29:00;99551.59;;;21.75;100.00
12209;BME280;6167;43.080;25.634;2022-07-29T02:31:33;99563.84;;;21.48;100.00
12209;BME280;6167;43.080;25.634;2022-07-29T02:34:03;99563.44;;;21.53;100.00
12209;BME280;6167;43.080;25.634;2022-07-29T02:36:32;99571.50;;;21.63;100.00
12209;BME280;6167;43.080;25.634;2022-07-29T02:39:00;99558.25;;;21.80;100.00
12209;BME280;6167;43.080;25.634;2022-07-29T02:41:33;99557.53;;;21.78;100.00
12209;BME280;6167;43.080;25.634;2022-07-29T02:44:05;99565.31;;;21.72;100.00
12209;BME280;6167;43.080;25.634;2022-07-29T02:46:35;99562.66;;;21.81;100.00
12209;BME280;6167;43.080;25.634;2022-07-29T02:49:09;99560.22;;;21.59;100.00
12209;BME280;6167;43.080;25.634;2022-07-29T02:51:43;99568.69;;;21.54;100.00
12209;BME280;6167;43.080;25.634;2022-07-29T02:54:17;99562.22;;;21.86;100.00
12209;BME280;6167;43.080;25.634;2022-07-29T02:56:46;99547.75;;;21.87;100.00
12209;BME280;6167;43.080;25.634;2022-07-29T02:59:16;99563.78;;;21.79;100.00
12209;BME280;6167;43.080;25.634;2022-07-29T03:01:48;99568.56;;;21.66;100.00
12209;BME280;6167;43.080;25.634;2022-07-29T03:04:19;99572.63;;;21.50;100.00
12209;BME280;6167;43.080;25.634;2022-07-29T03:06:48;99560.94;;;21.21;100.00
12209;BME280;6167;43.080;25.634;2022-07-29T03:09:17;99571.19;;;21.46;100.00
12209;BME280;6167;43.080;25.634;2022-07-29T03:11:45;99555.28;;;21.24;100.00
12209;BME280;6167;43.080;25.634;2022-07-29T03:14:12;99576.81;;;21.03;100.00
12209;BME280;6167;43.080;25.634;2022-07-29T03:16:40;99589.56;;;20.50;100.00
12209;BME280;6167;43.080;25.634;2022-07-29T03:19:08;99582.56;;;20.89;100.00
12209;BME280;6167;43.080;25.634;2022-07-29T03:21:36;99582.06;;;21.05;100.00
12209;BME280;6167;43.080;25.634;2022-07-29T03:24:04;99580.84;;;20.78;100.00
12209;BME280;6167;43.080;25.634;2022-07-29T03:26:31;99595.41;;;20.85;100.00
12209;BME280;6167;43.080;25.634;2022-07-29T03:28:58;99582.03;;;20.95;100.00
12209;BME280;6167;43.080;25.634;2022-07-29T03:31:26;99600.03;;;21.04;100.00
12209;BME280;6167;43.080;25.634;2022-07-29T03:33:53;99601.34;;;21.10;100.00
12209;BME280;6167;43.080;25.634;2022-07-29T03:36:20;99608.88;;;21.16;100.00
12209;BME280;6167;43.080;25.634;2022-07-29T03:38:48;99602.13;;;21.21;100.00
12209;BME280;6167;43.080;25.634;2022-07-29T03:41:16;99600.16;;;21.03;100.00
12209;BME280;6167;43.080;25.634;2022-07-29T03:43:44;99608.44;;;20.90;100.00
12209;BME280;6167;43.080;25.634;2022-07-29T03:46:13;99604.25;;;21.27;100.00
12209;BME280;6167;43.080;25.634;2022-07-29T03:48:46;99604.50;;;21.65;100.00
12209;BME280;6167;43.080;25.634;2022-07-29T03:51:15;99605.84;;;21.80;100.00
12209;BME280;6167;43.080;25.634;2022-07-29T03:53:42;99607.72;;;22.27;100.00
12209;BME280;6167;43.080;25.634;2022-07-29T03:56:15;99598.50;;;22.59;100.00
12209;BME280;6167;43.080;25.634;2022-07-29T03:58:44;99604.66;;;22.98;100.00
12209;BME280;6167;43.080;25.634;2022-07-29T04:01:11;99607.09;;;23.28;100.00
12209;BME280;6167;43.080;25.634;2022-07-29T04:03:39;99606.69;;;23.60;100.00
12209;BME280;6167;43.080;25.634;2022-07-29T04:06:06;99609.50;;;23.31;100.00
12209;BME280;6167;43.080;25.634;2022-07-29T04:08:34;99608.81;;;23.67;100.00
12209;BME280;6167;43.080;25.634;2022-07-29T04:11:06;99623.88;;;23.87;100.00
12209;BME280;6167;43.080;25.634;2022-07-29T04:13:35;99614.09;;;24.21;100.00
12209;BME280;6167;43.080;25.634;2022-07-29T04:16:02;99614.19;;;24.47;100.00
12209;BME280;6167;43.080;25.634;2022-07-29T04:18:31;99602.50;;;24.64;100.00
12209;BME280;6167;43.080;25.634;2022-07-29T04:20:58;99601.34;;;24.93;100.00
12209;BME280;6167;43.080;25.634;2022-07-29T04:23:30;99607.69;;;24.84;100.00
12209;BME280;6167;43.080;25.634;2022-07-29T04:25:59;99610.22;;;25.03;100.00
12209;BME280;6167;43.080;25.634;2022-07-29T04:28:27;99610.41;;;25.36;100.00
12209;BME280;6167;43.080;25.634;2022-07-29T04:30:56;99610.31;;;25.61;100.00
12209;BME280;6167;43.080;25.634;2022-07-29T04:33:23;99610.09;;;25.89;100.00
12209;BME280;6167;43.080;25.634;2022-07-29T04:35:50;99614.03;;;26.19;100.00
12209;BME280;6167;43.080;25.634;2022-07-29T04:38:17;99607.09;;;26.08;100.00
12209;BME280;6167;43.080;25.634;2022-07-29T04:40:44;99615.16;;;25.76;100.00
12209;BME280;6167;43.080;25.634;2022-07-29T04:43:11;99617.94;;;26.24;100.00
12209;BME280;6167;43.080;25.634;2022-07-29T04:45:38;99613.06;;;26.77;100.00
12209;BME280;6167;43.080;25.634;2022-07-29T04:48:06;99609.41;;;27.25;100.00
12209;BME280;6167;43.080;25.634;2022-07-29T04:50:33;99614.19;;;27.70;100.00
12209;BME280;6167;43.080;25.634;2022-07-29T04:53:00;99615.22;;;28.00;100.00
12209;BME280;6167;43.080;25.634;2022-07-29T04:55:27;99613.69;;;28.28;100.00
12209;BME280;6167;43.080;25.634;2022-07-29T04:57:54;99608.72;;;28.55;100.00
12209;BME280;6167;43.080;25.634;2022-07-29T05:00:21;99602.88;;;28.43;100.00
12209;BME280;6167;43.080;25.634;2022-07-29T05:02:49;99609.56;;;28.55;100.00
12209;BME280;6167;43.080;25.634;2022-07-29T05:05:18;99617.69;;;28.41;100.00
12209;BME280;6167;43.080;25.634;2022-07-29T05:07:49;99610.78;;;28.53;100.00
12209;BME280;6167;43.080;25.634;2022-07-29T05:10:16;99619.63;;;28.69;100.00
12209;BME280;6167;43.080;25.634;2022-07-29T05:12:43;99616.22;;;28.53;100.00
12209;BME280;6167;43.080;25.634;2022-07-29T05:15:10;99613.34;;;28.69;100.00
12209;BME280;6167;43.080;25.634;2022-07-29T05:17:37;99618.44;;;29.10;100.00
12209;BME280;6167;43.080;25.634;2022-07-29T05:20:05;99623.78;;;29.32;100.00
12209;BME280;6167;43.080;25.634;2022-07-29T05:22:35;99629.69;;;29.36;98.45
12209;BME280;6167;43.080;25.634;2022-07-29T05:25:04;99634.69;;;29.62;97.00
12209;BME280;6167;43.080;25.634;2022-07-29T05:27:31;99614.47;;;29.86;96.93
12209;BME280;6167;43.080;25.634;2022-07-29T05:30:00;99634.78;;;30.19;91.83
12209;BME280;6167;43.080;25.634;2022-07-29T05:32:28;99632.78;;;30.49;85.66
12209;BME280;6167;43.080;25.634;2022-07-29T05:34:54;99626.69;;;30.47;82.52
12209;BME280;6167;43.080;25.634;2022-07-29T05:37:23;99630.13;;;30.56;85.79
12209;BME280;6167;43.080;25.634;2022-07-29T05:39:51;99635.00;;;30.60;84.41
12209;BME280;6167;43.080;25.634;2022-07-29T05:42:18;99618.56;;;31.03;79.39
12209;BME280;6167;43.080;25.634;2022-07-29T05:44:47;99616.38;;;31.54;74.52
12209;BME280;6167;43.080;25.634;2022-07-29T05:47:14;99620.16;;;31.94;75.53
12209;BME280;6167;43.080;25.634;2022-07-29T05:49:41;99625.22;;;31.97;71.16
12209;BME280;6167;43.080;25.634;2022-07-29T05:52:08;99609.06;;;31.61;74.81
12209;BME280;6167;43.080;25.634;2022-07-29T05:54:36;99622.00;;;31.46;76.05
12209;BME280;6167;43.080;25.634;2022-07-29T05:57:05;99621.81;;;31.48;71.12
12209;BME280;6167;43.080;25.634;2022-07-29T05:59:37;99610.84;;;31.82;65.11
12209;BME280;6167;43.080;25.634;2022-07-29T06:02:04;99629.00;;;32.03;65.11
12209;BME280;6167;43.080;25.634;2022-07-29T06:04:32;99615.22;;;32.31;65.37
12209;BME280;6167;43.080;25.634;2022-07-29T06:06:59;99621.75;;;32.30;64.27
12209;BME280;6167;43.080;25.634;2022-07-29T06:09:27;99623.44;;;32.44;63.46
12209;BME280;6167;43.080;25.634;2022-07-29T06:11:53;99630.59;;;32.38;62.90
12209;BME280;6167;43.080;25.634;2022-07-29T06:14:23;99616.53;;;32.61;60.74
12209;BME280;6167;43.080;25.634;2022-07-29T06:16:50;99623.69;;;33.22;58.44
12209;BME280;6167;43.080;25.634;2022-07-29T06:19:18;99622.63;;;33.16;55.72
12209;BME280;6167;43.080;25.634;2022-07-29T06:21:46;99628.09;;;33.16;55.95
12209;BME280;6167;43.080;25.634;2022-07-29T06:24:14;99617.34;;;33.08;58.74
12209;BME280;6167;43.080;25.634;2022-07-29T06:26:42;99613.97;;;33.32;61.87
12209;BME280;6167;43.080;25.634;2022-07-29T06:29:11;99606.44;;;33.86;56.49
12209;BME280;6167;43.080;25.634;2022-07-29T06:31:40;99614.41;;;33.94;53.66
12209;BME280;6167;43.080;25.634;2022-07-29T06:34:07;99619.44;;;34.41;55.33
12209;BME280;6167;43.080;25.634;2022-07-29T06:36:35;99620.75;;;34.32;51.74
12209;BME280;6167;43.080;25.634;2022-07-29T06:39:04;99619.75;;;34.52;51.77
12209;BME280;6167;43.080;25.634;2022-07-29T06:41:32;99616.78;;;34.53;52.14
12209;BME280;6167;43.080;25.634;2022-07-29T06:43:59;99620.81;;;34.82;50.75
12209;BME280;6167;43.080;25.634;2022-07-29T06:46:27;99589.97;;;35.05;46.66
12209;BME280;6167;43.080;25.634;2022-07-29T06:48:55;99613.34;;;34.64;49.46
12209;BME280;6167;43.080;25.634;2022-07-29T06:51:24;99607.06;;;33.88;49.25
12209;BME280;6167;43.080;25.634;2022-07-29T06:53:52;99603.72;;;33.79;50.63
12209;BME280;6167;43.080;25.634;2022-07-29T06:56:19;99597.75;;;33.31;53.79
12209;BME280;6167;43.080;25.634;2022-07-29T06:58:46;99599.72;;;33.68;57.13
12209;BME280;6167;43.080;25.634;2022-07-29T07:01:14;99607.38;;;33.60;57.81
12209;BME280;6167;43.080;25.634;2022-07-29T07:03:40;99596.22;;;34.06;55.65
12209;BME280;6167;43.080;25.634;2022-07-29T07:06:10;99601.84;;;34.74;48.56
12209;BME280;6167;43.080;25.634;2022-07-29T07:08:37;99602.47;;;35.01;50.03
12209;BME280;6167;43.080;25.634;2022-07-29T07:11:04;99594.47;;;35.42;46.65
12209;BME280;6167;43.080;25.634;2022-07-29T07:13:32;99593.94;;;34.59;45.75
12209;BME280;6167;43.080;25.634;2022-07-29T07:16:00;99595.53;;;34.49;46.91
12209;BME280;6167;43.080;25.634;2022-07-29T07:18:28;99593.47;;;34.37;45.20
12209;BME280;6167;43.080;25.634;2022-07-29T07:20:56;99593.78;;;34.29;46.69
12209;BME280;6167;43.080;25.634;2022-07-29T07:23:25;99598.88;;;34.51;47.42
12209;BME280;6167;43.080;25.634;2022-07-29T07:25:52;99594.41;;;34.56;44.54
12209;BME280;6167;43.080;25.634;2022-07-29T07:28:19;99589.78;;;34.75;48.30
12209;BME280;6167;43.080;25.634;2022-07-29T07:30:46;99589.16;;;34.79;45.68
12209;BME280;6167;43.080;25.634;2022-07-29T07:33:13;99596.78;;;35.21;42.49
12209;BME280;6167;43.080;25.634;2022-07-29T07:35:40;99585.91;;;35.99;39.17
12209;BME280;6167;43.080;25.634;2022-07-29T07:38:07;99589.31;;;36.42;38.90
12209;BME280;6167;43.080;25.634;2022-07-29T07:40:40;99589.91;;;36.74;37.18
12209;BME280;6167;43.080;25.634;2022-07-29T07:43:07;99574.31;;;36.80;37.03
12209;BME280;6167;43.080;25.634;2022-07-29T07:45:34;99587.50;;;37.36;37.23
12209;BME280;6167;43.080;25.634;2022-07-29T07:48:02;99577.59;;;37.64;37.99
12209;BME280;6167;43.080;25.634;2022-07-29T07:50:30;99562.66;;;37.88;37.16
12209;BME280;6167;43.080;25.634;2022-07-29T07:52:57;99577.47;;;38.10;35.56
12209;BME280;6167;43.080;25.634;2022-07-29T07:55:25;99559.66;;;37.90;35.92
12209;BME280;6167;43.080;25.634;2022-07-29T07:57:57;99561.50;;;37.32;37.85
12209;BME280;6167;43.080;25.634;2022-07-29T08:00:24;99567.69;;;37.91;36.96
12209;BME280;6167;43.080;25.634;2022-07-29T08:02:52;99553.28;;;37.61;36.30
12209;BME280;6167;43.080;25.634;2022-07-29T08:05:19;99570.75;;;37.78;36.57
12209;BME280;6167;43.080;25.634;2022-07-29T08:07:47;99550.13;;;37.17;35.72
12209;BME280;6167;43.080;25.634;2022-07-29T08:10:14;99577.75;;;36.52;37.30
12209;BME280;6167;43.080;25.634;2022-07-29T08:13:03;99568.94;;;36.97;36.72
12209;BME280;6167;43.080;25.634;2022-07-29T08:15:30;99558.63;;;37.39;34.54
12209;BME280;6167;43.080;25.634;2022-07-29T08:17:58;99553.00;;;37.74;32.90
12209;BME280;6167;43.080;25.634;2022-07-29T08:20:25;99557.84;;;37.55;34.60
12209;BME280;6167;43.080;25.634;2022-07-29T08:22:53;99555.25;;;37.25;35.21
12209;BME280;6167;43.080;25.634;2022-07-29T08:25:20;99554.44;;;37.25;34.88
12209;BME280;6167;43.080;25.634;2022-07-29T08:27:57;99547.00;;;37.13;35.15
12209;BME280;6167;43.080;25.634;2022-07-29T08:30:25;99550.47;;;37.09;35.18
12209;BME280;6167;43.080;25.634;2022-07-29T08:32:52;99548.53;;;36.51;35.62
12209;BME280;6167;43.080;25.634;2022-07-29T08:35:20;99556.34;;;37.12;35.37
12209;BME280;6167;43.080;25.634;2022-07-29T08:37:47;99552.88;;;37.29;34.99
12209;BME280;6167;43.080;25.634;2022-07-29T08:40:14;99552.75;;;37.00;33.96
12209;BME280;6167;43.080;25.634;2022-07-29T08:42:41;99547.84;;;37.26;34.70
12209;BME280;6167;43.080;25.634;2022-07-29T08:45:09;99539.44;;;37.32;33.93
12209;BME280;6167;43.080;25.634;2022-07-29T08:47:38;99546.41;;;37.11;34.46
12209;BME280;6167;43.080;25.634;2022-07-29T08:50:09;99540.78;;;37.18;33.61
12209;BME280;6167;43.080;25.634;2022-07-29T08:52:37;99545.56;;;37.23;34.14
12209;BME280;6167;43.080;25.634;2022-07-29T08:55:05;99536.22;;;37.35;32.77
12209;BME280;6167;43.080;25.634;2022-07-29T08:57:35;99531.53;;;37.76;32.63
12209;BME280;6167;43.080;25.634;2022-07-29T09:00:05;99533.56;;;38.26;31.36
12209;BME280;6167;43.080;25.634;2022-07-29T09:05:19;99534.25;;;38.33;32.02
12209;BME280;6167;43.080;25.634;2022-07-29T09:07:46;99524.97;;;38.72;32.16
12209;BME280;6167;43.080;25.634;2022-07-29T09:10:13;99518.22;;;38.63;30.75
12209;BME280;6167;43.080;25.634;2022-07-29T09:12:40;99518.13;;;38.58;30.75
12209;BME280;6167;43.080;25.634;2022-07-29T09:15:09;99519.81;;;38.59;30.80
12209;BME280;6167;43.080;25.634;2022-07-29T09:17:40;99505.56;;;38.67;30.38
12209;BME280;6167;43.080;25.634;2022-07-29T09:20:09;99518.59;;;39.27;28.59
12209;BME280;6167;43.080;25.634;2022-07-29T09:22:38;99518.72;;;39.15;29.17
12209;BME280;6167;43.080;25.634;2022-07-29T09:25:05;99523.03;;;38.73;30.74
12209;BME280;6167;43.080;25.634;2022-07-29T09:27:33;99526.75;;;38.00;31.26
12209;BME280;6167;43.080;25.634;2022-07-29T09:30:02;99523.94;;;38.11;30.11
12209;BME280;6167;43.080;25.634;2022-07-29T09:32:31;99517.44;;;37.61;30.86
12209;BME280;6167;43.080;25.634;2022-07-29T09:35:13;99515.22;;;37.63;32.02
12209;BME280;6167;43.080;25.634;2022-07-29T09:37:43;99503.63;;;37.72;31.52
12209;BME280;6167;43.080;25.634;2022-07-29T09:40:16;99509.66;;;38.31;30.02
12209;BME280;6167;43.080;25.634;2022-07-29T09:42:43;99505.16;;;38.59;29.86
12209;BME280;6167;43.080;25.634;2022-07-29T09:45:11;99497.22;;;38.62;31.09
12209;BME280;6167;43.080;25.634;2022-07-29T09:47:43;99500.38;;;37.92;31.34
12209;BME280;6167;43.080;25.634;2022-07-29T09:50:12;99491.66;;;38.29;30.85
12209;BME280;6167;43.080;25.634;2022-07-29T09:52:47;99499.53;;;38.20;30.10
12209;BME280;6167;43.080;25.634;2022-07-29T09:55:19;99497.28;;;38.34;29.42
12209;BME280;6167;43.080;25.634;2022-07-29T09:57:46;99490.34;;;38.65;28.89
12209;BME280;6167;43.080;25.634;2022-07-29T10:00:16;99496.56;;;38.10;28.99
12209;BME280;6167;43.080;25.634;2022-07-29T10:02:46;99486.56;;;37.64;30.43
12209;BME280;6167;43.080;25.634;2022-07-29T10:05:18;99488.16;;;37.71;31.45
12209;BME280;6167;43.080;25.634;2022-07-29T10:07:48;99489.34;;;37.75;31.57
12209;BME280;6167;43.080;25.634;2022-07-29T10:10:20;99487.06;;;37.72;29.81
12209;BME280;6167;43.080;25.634;2022-07-29T10:12:49;99492.34;;;37.91;30.61
12209;BME280;6167;43.080;25.634;2022-07-29T10:15:17;99488.25;;;38.38;31.41
12209;BME280;6167;43.080;25.634;2022-07-29T10:17:45;99492.66;;;36.74;32.17
12209;BME280;6167;43.080;25.634;2022-07-29T10:20:12;99476.94;;;37.49;32.47
12209;BME280;6167;43.080;25.634;2022-07-29T10:22:40;99480.06;;;37.41;32.29
12209;BME280;6167;43.080;25.634;2022-07-29T10:25:09;99477.13;;;37.71;32.38
12209;BME280;6167;43.080;25.634;2022-07-29T10:27:36;99469.09;;;37.30;32.45
12209;BME280;6167;43.080;25.634;2022-07-29T10:30:05;99453.66;;;37.29;33.69
12209;BME280;6167;43.080;25.634;2022-07-29T10:32:51;99463.81;;;36.76;34.31
12209;BME280;6167;43.080;25.634;2022-07-29T10:35:51;99453.63;;;36.77;33.96
12209;BME280;6167;43.080;25.634;2022-07-29T10:38:52;99455.63;;;37.45;33.30
12209;BME280;6167;43.080;25.634;2022-07-29T10:41:43;99447.00;;;37.41;32.64
12209;BME280;6167;43.080;25.634;2022-07-29T10:44:17;99439.25;;;36.52;33.63
12209;BME280;6167;43.080;25.634;2022-07-29T10:46:45;99433.38;;;36.71;33.27
12209;BME280;6167;43.080;25.634;2022-07-29T10:49:14;99426.13;;;37.45;31.09
12209;BME280;6167;43.080;25.634;2022-07-29T10:51:52;99452.16;;;37.95;30.89
12209;BME280;6167;43.080;25.634;2022-07-29T10:54:39;99433.44;;;37.97;30.95
12209;BME280;6167;43.080;25.634;2022-07-29T10:57:23;99440.94;;;37.84;30.95
12209;BME280;6167;43.080;25.634;2022-07-29T11:00:25;99436.03;;;38.03;31.05
12209;BME280;6167;43.080;25.634;2022-07-29T11:02:52;99430.28;;;38.38;31.65
12209;BME280;6167;43.080;25.634;2022-07-29T11:05:21;99435.88;;;38.43;30.61
12209;BME280;6167;43.080;25.634;2022-07-29T11:08:16;99430.97;;;37.67;31.78
12209;BME280;6167;43.080;25.634;2022-07-29T11:10:45;99429.09;;;37.56;31.06
12209;BME280;6167;43.080;25.634;2022-07-29T11:13:49;99425.56;;;37.72;31.75
12209;BME280;6167;43.080;25.634;2022-07-29T11:16:18;99414.16;;;37.68;31.83
12209;BME280;6167;43.080;25.634;2022-07-29T11:19:21;99411.88;;;38.10;31.73
12209;BME280;6167;43.080;25.634;2022-07-29T11:21:48;99409.84;;;38.39;31.69
12209;BME280;6167;43.080;25.634;2022-07-29T11:24:54;99413.25;;;38.46;31.54
12209;BME280;6167;43.080;25.634;2022-07-29T11:27:39;99405.16;;;38.57;31.27
12209;BME280;6167;43.080;25.634;2022-07-29T11:30:09;99403.19;;;38.96;31.30
12209;BME280;6167;43.080;25.634;2022-07-29T11:32:38;99399.69;;;39.00;31.31
12209;BME280;6167;43.080;25.634;2022-07-29T11:35:18;99401.31;;;38.58;31.72
12209;BME280;6167;43.080;25.634;2022-07-29T11:38:25;99405.50;;;38.60;30.87
12209;BME280;6167;43.080;25.634;2022-07-29T11:41:24;99404.41;;;38.28;31.18
12209;BME280;6167;43.080;25.634;2022-07-29T11:43:52;99395.66;;;37.97;32.48
12209;BME280;6167;43.080;25.634;2022-07-29T11:46:45;99400.25;;;37.92;31.88
12209;BME280;6167;43.080;25.634;2022-07-29T11:49:19;99393.88;;;38.08;32.82
12209;BME280;6167;43.080;25.634;2022-07-29T11:51:50;99393.06;;;38.24;31.78
12209;BME280;6167;43.080;25.634;2022-07-29T11:54:24;99390.53;;;38.06;32.88
12209;BME280;6167;43.080;25.634;2022-07-29T11:56:52;99386.19;;;37.93;32.44
12209;BME280;6167;43.080;25.634;2022-07-29T11:59:21;99385.53;;;38.03;31.99
12209;BME280;6167;43.080;25.634;2022-07-29T12:01:56;99379.03;;;37.64;33.02
12209;BME280;6167;43.080;25.634;2022-07-29T12:04:23;99383.91;;;37.57;32.81
12209;BME280;6167;43.080;25.634;2022-07-29T12:06:54;99376.91;;;37.99;33.37
12209;BME280;6167;43.080;25.634;2022-07-29T12:09:22;99378.66;;;38.39;32.27
12209;BME280;6167;43.080;25.634;2022-07-29T12:11:56;99373.31;;;38.32;32.53
12209;BME280;6167;43.080;25.634;2022-07-29T12:14:25;99366.81;;;38.22;32.74
12209;BME280;6167;43.080;25.634;2022-07-29T12:16:52;99367.06;;;38.20;32.50
12209;BME280;6167;43.080;25.634;2022-07-29T12:19:20;99361.38;;;37.76;31.48
12209;BME280;6167;43.080;25.634;2022-07-29T12:21:49;99364.63;;;37.90;32.32
12209;BME280;6167;43.080;25.634;2022-07-29T12:24:17;99363.81;;;37.44;32.57
12209;BME280;6167;43.080;25.634;2022-07-29T12:26:58;99352.53;;;37.46;32.28
12209;BME280;6167;43.080;25.634;2022-07-29T12:29:26;99358.84;;;37.30;33.32
12209;BME280;6167;43.080;25.634;2022-07-29T12:31:54;99365.31;;;37.80;32.67
12209;BME280;6167;43.080;25.634;2022-07-29T12:34:24;99346.19;;;38.29;32.32
12209;BME280;6167;43.080;25.634;2022-07-29T12:36:54;99341.03;;;38.55;31.92
12209;BME280;6167;43.080;25.634;2022-07-29T12:39:21;99345.75;;;38.15;32.07
12209;BME280;6167;43.080;25.634;2022-07-29T12:41:48;99337.88;;;37.91;32.10
12209;BME280;6167;43.080;25.634;2022-07-29T12:44:15;99339.41;;;37.81;32.39
12209;BME280;6167;43.080;25.634;2022-07-29T12:46:42;99332.13;;;37.75;33.00
12209;BME280;6167;43.080;25.634;2022-07-29T12:49:21;99335.34;;;37.56;33.03
12209;BME280;6167;43.080;25.634;2022-07-29T12:51:50;99329.78;;;36.94;33.01
12209;BME280;6167;43.080;25.634;2022-07-29T12:54:17;99333.59;;;36.93;34.08
12209;BME280;6167;43.080;25.634;2022-07-29T12:56:44;99319.88;;;37.38;33.27
12209;BME280;6167;43.080;25.634;2022-07-29T12:59:14;99331.53;;;37.90;32.16
12209;BME280;6167;43.080;25.634;2022-07-29T13:01:41;99324.06;;;38.07;32.06
12209;BME280;6167;43.080;25.634;2022-07-29T13:04:09;99319.97;;;37.93;31.90
12209;BME280;6167;43.080;25.634;2022-07-29T13:06:38;99325.59;;;37.81;32.17
12209;BME280;6167;43.080;25.634;2022-07-29T13:09:10;99308.59;;;37.39;33.79
12209;BME280;6167;43.080;25.634;2022-07-29T13:11:44;99308.84;;;37.09;33.82
12209;BME280;6167;43.080;25.634;2022-07-29T13:14:14;99310.91;;;37.31;32.50